This is the latest recevied weather packets stored in our database for station/object WA4TPR. If no packets are shown the sender has not sent any weather packets the latest 10 day(s).
| Time | Temp. | Humidity | Pressure | Rain* | Wind** | Luminosity | Snow |
|---|---|---|---|---|---|---|---|
| 1778099376 | 33.89° C | 39% | 1019 hPa | 0 mm | - | 574 W/m² | - |
| 1778099073 | 33.89° C | 42% | 1019.1 hPa | 0 mm | - | 588 W/m² | - |
| 1778098769 | 33.89° C | 41% | 1019 hPa | 0 mm | - | 607 W/m² | - |
| 1778098467 | 34.44° C | 40% | 1019 hPa | 0 mm | - | 616 W/m² | - |
| 1778098163 | 34.44° C | 39% | 1019.1 hPa | 0 mm | - | 627 W/m² | - |
| 1778097860 | 34.44° C | 40% | 1019.2 hPa | 0 mm | - | 651 W/m² | - |
| 1778097556 | 34.44° C | 40% | 1019.2 hPa | 0 mm | - | 642 W/m² | - |
| 1778097253 | 34.44° C | 40% | 1019 hPa | 0 mm | - | 627 W/m² | - |
| 1778096950 | 33.89° C | 40% | 1019.2 hPa | 0 mm | - | 684 W/m² | - |
| 1778096647 | 33.33° C | 43% | 1019.1 hPa | 0 mm | - | 688 W/m² | - |
| 1778096344 | 34.44° C | 40% | 1019.4 hPa | 0 mm | - | 703 W/m² | - |
| 1778096041 | 34.44° C | 40% | 1019.7 hPa | 0 mm | - | 711 W/m² | - |
| 1778095737 | 33.33° C | 43% | 1019.6 hPa | 0 mm | - | 733 W/m² | - |
| 1778095434 | 33.89° C | 41% | 1019.6 hPa | 0 mm | - | 715 W/m² | - |
| 1778095131 | 33.89° C | 41% | 1019.5 hPa | 0 mm | - | 741 W/m² | - |
| 1778094827 | 33.33° C | 42% | 1019.5 hPa | 0 mm | - | 760 W/m² | - |
| 1778094524 | 33.89° C | 41% | 1019.7 hPa | 0 mm | - | 760 W/m² | - |
| 1778094220 | 34.44° C | 42% | 1020 hPa | 0 mm | - | 710 W/m² | - |
| 1778093917 | 33.89° C | 41% | 1019.9 hPa | 0 mm | - | 790 W/m² | - |
| 1778093615 | 34.44° C | 41% | 1020.1 hPa | 0 mm | - | 775 W/m² | - |
| 1778093312 | 34.44° C | 42% | 1019.9 hPa | 0 mm | - | 799 W/m² | - |
| 1778093009 | 33.89° C | 42% | 1020 hPa | 0 mm | - | 798 W/m² | - |
| 1778092706 | 33.89° C | 42% | 1020.2 hPa | 0 mm | - | 813 W/m² | - |
| 1778092401 | 33.89° C | 44% | 1020.3 hPa | 0 mm | - | 814 W/m² | - |
| 1778092099 | 33.89° C | 43% | 1020.2 hPa | 0 mm | - | 815 W/m² | - |
* Rain latest hour (hover to see other rain measurements)
** Current wind speed in m/s (hover to see current wind gust speed)